createdAt,value
2022-12-25T00:00:32.231Z,26.80
2022-12-25T00:05:59.680Z,24.60
2022-12-25T00:11:08.162Z,28.50
2022-12-25T00:16:21.052Z,23.50
2022-12-25T00:21:25.459Z,24.70
2022-12-25T00:26:29.968Z,24.90
2022-12-25T00:31:35.141Z,26.10
2022-12-25T00:36:41.849Z,25.40
2022-12-25T00:42:05.706Z,28.80
2022-12-25T00:47:09.695Z,23.80
2022-12-25T00:52:13.603Z,27.50
2022-12-25T00:57:17.829Z,21.90
2022-12-25T01:02:24.859Z,22.50
2022-12-25T01:07:31.087Z,20.60
2022-12-25T01:12:38.243Z,17.40
2022-12-25T01:17:45.299Z,18.00
2022-12-25T01:22:51.273Z,17.70
2022-12-25T01:27:56.514Z,18.20
2022-12-25T01:33:01.373Z,20.30
2022-12-25T01:38:07.229Z,18.00
2022-12-25T01:43:25.163Z,19.10
2022-12-25T01:48:37.835Z,17.10
2022-12-25T01:53:44.887Z,18.60
2022-12-25T01:58:50.925Z,18.20
2022-12-25T02:04:01.910Z,17.70
2022-12-25T02:09:08.482Z,17.40
2022-12-25T02:14:14.471Z,19.60
2022-12-25T02:20:03.545Z,20.00
2022-12-25T02:25:09.725Z,18.90
2022-12-25T02:30:15.138Z,23.10
2022-12-25T02:35:29.885Z,23.60
2022-12-25T02:40:50.044Z,19.80
2022-12-25T02:46:19.117Z,22.20
2022-12-25T02:51:46.798Z,21.80
2022-12-25T02:57:11.893Z,19.50
2022-12-25T03:02:36.116Z,22.90
2022-12-25T03:07:43.675Z,20.60
2022-12-25T03:12:59.614Z,20.20
2022-12-25T03:18:07.358Z,22.00
2022-12-25T03:23:34.117Z,21.50
2022-12-25T03:28:39.081Z,15.70
2022-12-25T03:34:09.935Z,20.50
2022-12-25T03:39:50.734Z,18.00
2022-12-25T03:45:29.564Z,21.00
2022-12-25T03:51:11.141Z,18.00
2022-12-25T03:56:38.011Z,21.40
2022-12-25T04:02:02.391Z,24.30
2022-12-25T04:07:25.020Z,21.30
2022-12-25T04:12:48.860Z,16.00
2022-12-25T04:18:13.050Z,19.30
2022-12-25T04:23:37.084Z,17.10
2022-12-25T04:29:00.759Z,17.80
2022-12-25T04:34:23.957Z,17.80
2022-12-25T04:39:28.331Z,15.10
2022-12-25T04:44:33.379Z,15.60
2022-12-25T04:49:37.880Z,18.50
2022-12-25T04:54:42.697Z,14.90
2022-12-25T04:59:48.065Z,12.70
2022-12-25T05:04:53.903Z,13.90
2022-12-25T05:09:59.015Z,15.30
2022-12-25T05:15:03.621Z,10.40
2022-12-25T05:20:09.018Z,11.10
2022-12-25T05:25:14.648Z,11.60
2022-12-25T05:30:19.208Z,12.30
2022-12-25T05:35:24.268Z,11.20
2022-12-25T05:40:29.691Z,11.30
2022-12-25T05:45:34.911Z,10.10
2022-12-25T05:50:40.283Z,11.40
2022-12-25T05:55:44.303Z,11.20
2022-12-25T06:00:49.514Z,12.70
2022-12-25T06:05:54.469Z,11.00
2022-12-25T06:11:00.448Z,9.90
2022-12-25T06:16:07.971Z,14.10
2022-12-25T06:21:14.630Z,11.30
2022-12-25T06:26:20.551Z,11.70
2022-12-25T06:31:25.133Z,10.10
2022-12-25T06:36:30.656Z,11.50
2022-12-25T06:41:34.728Z,11.70
2022-12-25T06:46:39.849Z,11.60
2022-12-25T06:51:44.645Z,12.50
2022-12-25T06:56:49.600Z,11.10
2022-12-25T07:01:58.438Z,14.00
2022-12-25T07:07:08.766Z,12.70
2022-12-25T07:12:23.966Z,13.20
2022-12-25T07:17:28.377Z,13.60
2022-12-25T07:22:32.087Z,12.20
2022-12-25T07:27:36.503Z,12.10
2022-12-25T07:32:45.530Z,12.60
2022-12-25T07:37:54.627Z,13.50
2022-12-25T07:43:01.215Z,19.20
2022-12-25T07:48:11.893Z,12.30
2022-12-25T07:53:20.713Z,13.00
2022-12-25T07:58:25.709Z,12.60
2022-12-25T08:03:30.905Z,12.30
2022-12-25T08:08:38.665Z,14.00
2022-12-25T08:13:46.265Z,14.00
2022-12-25T08:18:51.088Z,11.90
2022-12-25T08:23:56.785Z,16.20
2022-12-25T08:29:02.356Z,14.80
2022-12-25T08:34:08.374Z,12.10
2022-12-25T08:39:13.691Z,13.00
2022-12-25T08:44:17.499Z,13.30
2022-12-25T08:49:21.438Z,8.60
2022-12-25T08:54:25.647Z,10.90
2022-12-25T08:59:30.222Z,11.40
2022-12-25T09:04:35.312Z,12.80
2022-12-25T09:09:39.319Z,11.10
2022-12-25T09:14:44.221Z,11.00
2022-12-25T09:19:49.748Z,10.30
2022-12-25T09:24:53.911Z,12.00
2022-12-25T09:29:58.240Z,12.90
2022-12-25T09:35:03.172Z,12.20
2022-12-25T09:40:09.479Z,14.10
2022-12-25T09:45:26.994Z,13.80
2022-12-25T09:50:32.416Z,10.70
2022-12-25T09:55:45.075Z,15.30
2022-12-25T10:01:00.685Z,12.10
2022-12-25T10:06:24.387Z,11.70
2022-12-25T10:11:42.265Z,9.50
2022-12-25T10:16:46.882Z,16.10
2022-12-25T10:21:56.663Z,10.80
2022-12-25T10:27:05.305Z,11.60
2022-12-25T10:32:11.144Z,9.40
2022-12-25T10:37:18.120Z,10.70
2022-12-25T10:42:36.926Z,11.30
2022-12-25T10:47:45.380Z,10.70
2022-12-25T10:53:09.829Z,10.10
2022-12-25T10:58:21.292Z,10.10
2022-12-25T11:03:31.467Z,10.60
2022-12-25T11:08:35.628Z,11.10
2022-12-25T11:13:51.686Z,9.60
2022-12-25T11:18:59.443Z,9.30
2022-12-25T11:29:39.869Z,10.90
2022-12-25T11:34:48.314Z,11.90
2022-12-25T11:39:53.226Z,12.70
2022-12-25T11:45:12.995Z,10.40
2022-12-25T11:50:37.489Z,8.90
2022-12-25T11:55:46.812Z,9.60
2022-12-25T12:00:54.858Z,8.30
2022-12-25T12:06:05.419Z,9.50
2022-12-25T12:11:22.390Z,8.60
2022-12-25T12:16:27.483Z,9.20
2022-12-25T12:21:33.100Z,10.30
2022-12-25T12:26:42.229Z,10.00
2022-12-25T12:31:50.602Z,10.30
2022-12-25T12:37:05.600Z,9.00
2022-12-25T12:42:20.738Z,11.40
2022-12-25T12:47:50.099Z,8.60
2022-12-25T12:52:57.124Z,8.20
2022-12-25T12:58:07.041Z,8.60
2022-12-25T13:03:49.190Z,7.80
2022-12-25T13:09:26.868Z,8.30
2022-12-25T13:14:31.545Z,7.60
2022-12-25T13:19:37.824Z,7.60
2022-12-25T13:24:43.207Z,5.40
2022-12-25T13:29:49.019Z,8.80
2022-12-25T13:34:54.957Z,8.30
2022-12-25T13:40:02.071Z,8.80
2022-12-25T13:45:19.814Z,9.20
2022-12-25T13:50:34.937Z,7.90
2022-12-25T13:55:40.947Z,10.80
2022-12-25T14:00:51.688Z,32.20
2022-12-25T14:06:01.333Z,19.80
2022-12-25T14:11:08.230Z,12.80
2022-12-25T14:16:17.597Z,16.50
2022-12-25T14:21:53.070Z,15.50
2022-12-25T14:27:09.703Z,12.20
2022-12-25T14:32:34.995Z,12.20
2022-12-25T14:37:55.284Z,12.20
2022-12-25T14:43:24.825Z,12.80
2022-12-25T14:48:38.492Z,13.00
2022-12-25T14:53:56.371Z,12.10
2022-12-25T14:59:06.036Z,12.60
2022-12-25T15:04:22.769Z,12.30
2022-12-25T15:09:31.703Z,12.20
2022-12-25T15:14:39.212Z,14.40
2022-12-25T15:19:50.689Z,11.70
2022-12-25T15:25:12.507Z,12.90
2022-12-25T15:30:30.140Z,12.60
2022-12-25T15:41:09.522Z,14.60
2022-12-25T15:46:28.630Z,12.30
2022-12-25T15:51:48.430Z,26.00
2022-12-25T15:57:12.428Z,16.00
2022-12-25T16:02:26.143Z,16.90
2022-12-25T16:07:39.961Z,16.50
2022-12-25T16:13:00.298Z,13.90
2022-12-25T16:18:25.215Z,15.60
2022-12-25T16:23:37.246Z,20.70
2022-12-25T16:28:55.029Z,18.50
2022-12-25T16:34:09.304Z,19.30
2022-12-25T16:39:29.048Z,16.20
2022-12-25T16:44:40.654Z,17.40
2022-12-25T16:50:05.318Z,19.90
2022-12-25T16:55:18.977Z,18.50
2022-12-25T17:00:29.473Z,19.30
2022-12-25T17:05:42.721Z,17.10
2022-12-25T17:10:57.549Z,18.00
2022-12-25T17:16:27.551Z,17.30
2022-12-25T17:21:47.984Z,23.50
2022-12-25T17:27:15.763Z,22.30
2022-12-25T17:32:37.532Z,23.50
2022-12-25T17:38:01.309Z,27.60
2022-12-25T17:43:19.013Z,19.50
2022-12-25T17:48:30.062Z,22.60
2022-12-25T17:53:43.172Z,18.00
2022-12-25T17:58:58.414Z,17.10
2022-12-25T18:04:07.842Z,18.00
2022-12-25T18:09:13.703Z,15.40
2022-12-25T18:14:18.404Z,17.60
2022-12-25T18:19:24.141Z,17.40
2022-12-25T18:24:29.168Z,18.80
2022-12-25T18:29:33.831Z,16.60
2022-12-25T18:34:38.812Z,20.20
2022-12-25T18:39:43.209Z,24.90
2022-12-25T18:44:51.643Z,21.30
2022-12-25T18:49:56.290Z,23.40
2022-12-25T18:55:00.853Z,19.60
2022-12-25T19:00:11.785Z,20.70
2022-12-25T19:05:20.804Z,21.60
2022-12-25T19:10:33.200Z,21.80
2022-12-25T19:20:54.529Z,18.40
2022-12-25T19:26:00.864Z,22.50
2022-12-25T19:31:07.948Z,28.10
2022-12-25T19:36:17.039Z,25.10
2022-12-25T19:41:24.652Z,22.80
2022-12-25T19:46:39.170Z,20.60
2022-12-25T19:51:46.604Z,21.10
2022-12-25T19:56:50.877Z,19.80
2022-12-25T20:01:56.308Z,21.90
2022-12-25T20:07:03.993Z,20.90
2022-12-25T20:12:11.326Z,18.70
2022-12-25T20:17:16.112Z,19.90
2022-12-25T20:26:42.871Z,21.00
2022-12-25T20:31:47.997Z,20.30
2022-12-25T20:36:52.135Z,18.60
2022-12-25T20:41:56.352Z,22.10
2022-12-25T20:47:01.362Z,21.70
2022-12-25T20:52:06.517Z,20.40
2022-12-25T20:57:10.939Z,16.90
2022-12-25T21:02:35.845Z,21.00
2022-12-25T21:07:40.940Z,19.70
2022-12-25T21:12:46.196Z,20.70
2022-12-25T21:17:50.273Z,15.30
2022-12-25T21:22:54.268Z,18.70
2022-12-25T21:27:57.889Z,21.00
2022-12-25T21:33:21.488Z,16.90
2022-12-25T21:38:26.916Z,17.00
2022-12-25T21:43:31.644Z,18.50
2022-12-25T21:48:38.258Z,19.00
2022-12-25T21:53:42.304Z,17.20
2022-12-25T21:58:48.073Z,16.60
2022-12-25T22:03:53.009Z,18.90
2022-12-25T22:08:57.512Z,16.80
2022-12-25T22:14:20.794Z,13.60
2022-12-25T22:19:45.994Z,16.00
2022-12-25T22:24:52.304Z,18.70
2022-12-25T22:29:56.693Z,16.90
2022-12-25T22:35:00.890Z,18.20
2022-12-25T22:40:06.403Z,13.90
2022-12-25T22:45:13.716Z,15.70
2022-12-25T22:50:21.310Z,15.40
2022-12-25T22:55:26.864Z,16.30
2022-12-25T23:00:31.892Z,15.50
2022-12-25T23:05:37.240Z,14.00
2022-12-25T23:10:41.671Z,15.20
2022-12-25T23:15:49.075Z,16.30
2022-12-25T23:21:14.448Z,14.00
2022-12-25T23:26:21.796Z,14.80
2022-12-25T23:31:35.364Z,15.50
2022-12-25T23:36:41.970Z,16.50
2022-12-25T23:41:46.388Z,15.00
2022-12-25T23:46:52.578Z,14.80
2022-12-25T23:51:59.221Z,15.20
2022-12-25T23:57:04.074Z,13.70
